Taree, Australia
Current Conditions -  °F | °C
As of 11:00 AM on Monday 22 Dec 2014 (Local Time) from YTRE Reporting Station
Clear Clear  
Wind Chill: 82°   Ceiling: Unl
Heat Index: 82°   Visibility: NA
Dew Point: 59°   Wind: 10mph
Humidity: 45%   Direction: 10°N
Pressure: 30.03"   Gusts: NA
Location:  31.91°S, 152.46°E
Report Text: YTRE 220000Z AUTO 01009KT //// // NCD 28/15 Q1017
Loading
Personal Weather Stations






























Interactive Weather Map New forecast layout! Learn more

10-Day Weather Forecast

Advertisements
Track Severe Weather on mobile